Time;durP1;ratioP1;P1;durP2;ratioP2;P2;SDS_P1;SDS_P2;PMS_P1;PMS_P2;Temp;Humidity;BMP_temperature;BMP_pressure;BME280_temperature;BME280_humidity;BME280_pressure;Samples;Min_cycle;Max_cycle;Signal;HPM_P1;HPM_P2
2022/01/04 02:11:24;;;;;;;14.38;2.95;;;8.50;99.90;;;;;;4925698;29;20047;-85
2022/01/04 02:15:08;;;;;;;14.43;2.70;;;7.50;99.90;;;;;;4865045;29;20469;-84
2022/01/04 02:28:50;;;;;;;14.70;3.20;;;7.30;99.90;;;;;;4960703;28;20038;-83
2022/01/04 02:32:25;;;;;;;11.88;3.25;;;7.60;99.90;;;;;;4951757;28;20047;-85
2022/01/04 02:35:17;;;;;;;11.02;3.10;;;6.90;99.90;;;;;;4943530;28;20046;-85
2022/01/04 02:45:14;;;;;;;13.98;3.03;;;7.40;99.90;;;;;;4961210;28;20039;-84
2022/01/04 02:47:46;;;;;;;16.38;3.15;;;7.30;99.90;;;;;;4946452;28;20101;-82
2022/01/04 03:02:03;;;;;;;10.63;3.30;;;7.50;99.90;;;;;;4946145;28;20051;-84
2022/01/04 03:09:24;;;;;;;;;;;;;;;;;;;;;
2022/01/04 03:13:05;;;;;;;17.52;4.10;;;7.70;99.90;;;;;;4920277;29;20038;-84
2022/01/04 03:24:30;;;;;;;17.42;3.78;;;6.60;99.90;;;;;;4901129;29;20043;-84
2022/01/04 03:27:22;;;;;;;15.85;3.60;;;7.20;99.90;;;;;;4863806;29;20052;-84
2022/01/04 03:30:25;;;;;;;14.68;3.58;;;7.40;99.90;;;;;;4885753;29;20056;-83
2022/01/04 03:35:25;;;;;;;11.57;3.58;;;7.40;99.90;;;;;;4975697;28;20039;-83
2022/01/04 03:49:46;;;;;;;10.27;3.03;;;6.70;99.90;;;;;;4986153;28;20407;-85
2022/01/04 03:52:12;;;;;;;;;;;8.60;99.90;;;;;;4966695;28;20046;-84
2022/01/04 03:55:09;;;;;;;20.20;4.43;;;7.30;99.90;;;;;;4968518;28;19937;-85
2022/01/04 03:57:35;;;;;;;20.60;4.13;;;6.30;99.90;;;;;;4965023;28;20080;-84
2022/01/04 04:00:14;;;;;;;13.15;3.35;;;7.30;99.90;;;;;;4975507;28;20051;-84
2022/01/04 04:02:40;;;;;;;15.77;3.88;;;7.40;99.90;;;;;;5394798;23;20105;-84
2022/01/04 04:05:05;;;;;;;;;;;7.30;99.90;;;;;;4993485;28;20042;-84
2022/01/04 04:07:31;;;;;;;11.05;3.67;;;7.30;99.90;;;;;;4976246;28;19967;-83
2022/01/04 04:09:56;;;;;;;;;;;7.30;99.90;;;;;;4982112;28;20124;-84
2022/01/04 04:12:48;;;;;;;16.55;3.40;;;7.30;99.90;;;;;;5298880;23;20399;-83
2022/01/04 04:26:38;;;;;;;13.98;4.15;;;7.40;99.90;;;;;;5354644;23;20078;-83
2022/01/04 04:29:04;;;;;;;15.68;3.53;;;7.20;99.90;;;;;;4956549;28;20521;-83
2022/01/04 04:31:29;;;;;;;;;;;7.30;99.90;;;;;;4973738;28;20042;-83
2022/01/04 04:33:55;;;;;;;14.43;3.50;;;7.30;99.90;;;;;;4972842;28;19929;-83
2022/01/04 04:36:21;;;;;;;;;;;7.40;99.90;;;;;;4976847;28;20038;-84
2022/01/04 04:38:49;;;;;;;14.43;3.40;;;7.30;99.90;;;;;;4976633;28;19968;-84
2022/01/04 04:41:18;;;;;;;16.92;3.28;;;7.30;99.90;;;;;;4988338;28;20050;-84
2022/01/04 04:43:43;;;;;;;13.68;3.22;;;7.30;99.90;;;;;;4985221;28;20052;-84
2022/01/04 04:46:46;;;;;;;;;;;7.40;99.90;;;;;;5914430;23;20033;-83
2022/01/04 04:50:03;;;;;;;14.40;3.58;;;7.30;99.90;;;;;;4954740;28;19922;-84
2022/01/04 05:52:43;;;;;;;18.77;3.63;;;5.50;99.90;;;;;;4946917;28;20103;-84
2022/01/04 05:55:10;;;;;;;12.73;3.00;;;8.00;99.90;;;;;;4938502;28;20050;-84
2022/01/04 05:57:36;;;;;;;18.80;3.58;;;7.60;99.90;;;;;;5040578;23;20074;-83
2022/01/04 06:00:03;;;;;;;;;;;7.60;99.90;;;;;;4965033;28;20129;-84
2022/01/04 06:02:28;;;;;;;;;;;7.60;99.90;;;;;;4948390;28;19926;-84
2022/01/04 06:04:54;;;;;;;14.77;3.08;;;7.60;99.90;;;;;;4945083;28;20017;-85
2022/01/04 06:07:19;;;;;;;;;;;7.60;99.90;;;;;;4945945;28;20049;-84
2022/01/04 06:09:48;;;;;;;15.02;2.60;;;7.70;99.90;;;;;;4946025;28;19922;-85
2022/01/04 06:15:04;;;;;;;12.90;4.13;;;7.60;99.90;;;;;;4968714;28;20137;-85
2022/01/04 06:17:34;;;;;;;13.32;2.72;;;7.70;99.90;;;;;;4947839;29;20074;-84
2022/01/04 06:20:08;;;;;;;14.65;4.20;;;7.70;99.90;;;;;;4946790;28;20055;-85
2022/01/04 06:22:34;;;;;;;12.93;3.83;;;7.70;99.90;;;;;;4961482;28;20050;-84
2022/01/04 06:25:00;;;;;;;;;;;7.70;99.90;;;;;;4948387;28;20038;-83
2022/01/04 06:27:25;;;;;;;23.35;4.57;;;7.70;99.90;;;;;;4943377;28;20343;-84
2022/01/04 06:29:51;;;;;;;;;;;7.60;99.90;;;;;;4948771;28;20049;-83
2022/01/04 06:32:20;;;;;;;15.02;3.63;;;7.60;99.90;;;;;;4946160;28;20375;-85
2022/01/04 06:34:45;;;;;;;17.05;4.00;;;7.60;99.90;;;;;;4947122;28;20098;-85
2022/01/04 06:37:12;;;;;;;;;;;7.60;99.90;;;;;;4946558;28;20078;-84
2022/01/04 06:39:38;;;;;;;20.77;4.57;;;7.60;99.90;;;;;;4944866;28;19930;-84
2022/01/04 06:42:04;;;;;;;;;;;7.50;99.90;;;;;;4947250;28;20093;-85
2022/01/04 06:44:30;;;;;;;20.92;3.72;;;7.50;99.90;;;;;;4947416;28;19926;-85
2022/01/04 06:46:56;;;;;;;15.70;3.47;;;7.50;99.90;;;;;;4947466;28;20561;-84
2022/01/04 06:49:23;;;;;;;20.17;3.25;;;7.50;99.90;;;;;;4946471;28;20134;-85
2022/01/04 06:51:49;;;;;;;11.23;2.85;;;7.50;99.90;;;;;;4963057;28;20043;-85
2022/01/04 06:54:17;;;;;;;14.80;3.15;;;7.50;99.90;;;;;;4948945;28;20430;-85
2022/01/04 06:56:42;;;;;;;15.98;3.70;;;7.50;99.90;;;;;;4945665;28;20156;-84
2022/01/04 06:59:08;;;;;;;;;;;7.50;99.90;;;;;;4945504;28;20180;-84
2022/01/04 07:01:36;;;;;;;13.52;4.20;;;7.40;99.90;;;;;;5095395;23;19948;-84
2022/01/04 07:04:02;;;;;;;15.60;6.15;;;7.40;99.90;;;;;;5002924;23;20057;-85
2022/01/04 07:06:28;;;;;;;16.60;4.30;;;7.40;99.90;;;;;;4965653;28;20073;-84
2022/01/04 07:08:54;;;;;;;;;;;7.40;99.90;;;;;;4943370;28;20550;-85
2022/01/04 07:11:19;;;;;;;12.35;3.17;;;7.30;99.90;;;;;;4946972;28;19922;-85
2022/01/04 07:13:45;;;;;;;;;;;7.30;99.90;;;;;;4967805;23;20122;-84
2022/01/04 07:16:11;;;;;;;14.98;3.08;;;7.30;99.90;;;;;;4945686;28;19923;-84
2022/01/04 07:18:36;;;;;;;;;;;7.30;99.90;;;;;;4947302;28;20043;-84
2022/01/04 07:21:02;;;;;;;14.68;3.95;;;7.30;99.90;;;;;;4949125;28;19930;-84
2022/01/04 07:23:28;;;;;;;14.30;4.47;;;7.30;99.90;;;;;;4951293;28;20979;-84
2022/01/04 07:25:54;;;;;;;;;;;7.30;99.90;;;;;;4950545;28;20047;-85
2022/01/04 07:28:21;;;;;;;15.88;3.80;;;7.30;99.90;;;;;;4947091;29;19922;-84
2022/01/04 07:30:49;;;;;;;17.90;4.05;;;7.30;99.90;;;;;;4949745;28;20046;-85
2022/01/04 07:33:17;;;;;;;17.23;3.63;;;7.20;99.90;;;;;;4947240;29;20039;-84
2022/01/04 07:35:45;;;;;;;12.10;3.25;;;7.30;99.90;;;;;;4947265;28;20078;-84
2022/01/04 07:38:12;;;;;;;13.68;3.78;;;7.30;99.90;;;;;;4953233;28;20047;-84
2022/01/04 07:40:37;;;;;;;18.77;3.67;;;7.20;99.90;;;;;;4947817;28;20057;-84
2022/01/04 07:43:03;;;;;;;;;;;7.30;99.90;;;;;;4949687;28;20031;-84
2022/01/04 07:51:17;;;;;;;6.10;1.73;;;8.40;99.90;;;;;;5176879;23;20106;-85
2022/01/04 07:53:45;;;;;;;6.22;1.15;;;7.20;99.90;;;;;;4950048;28;20038;-85
2022/01/04 07:56:11;;;;;;;4.45;1.40;;;7.20;99.90;;;;;;4946872;29;20133;-85
2022/01/04 07:58:37;;;;;;;;;;;6.90;99.90;;;;;;4948886;28;20967;-84
2022/01/04 08:01:02;;;;;;;4.85;0.98;;;6.90;99.90;;;;;;4950141;23;19926;-84
2022/01/04 08:03:40;;;;;;;;;;;6.70;99.90;;;;;;4964473;28;20149;-85
2022/01/04 08:06:21;;;;;;;4.28;0.90;;;6.70;99.90;;;;;;4946290;28;20076;-84
2022/01/04 08:09:05;;;;;;;4.30;0.90;;;7.00;99.90;;;;;;4946079;28;20059;-85
2022/01/04 08:11:32;;;;;;;4.57;1.20;;;6.40;99.90;;;;;;4948014;28;20186;-85
2022/01/04 08:13:57;;;;;;;5.75;0.93;;;6.50;99.90;;;;;;4947018;28;20057;-85
2022/01/04 08:16:23;;;;;;;;;;;6.50;99.90;;;;;;4945135;28;20503;-84
2022/01/04 08:18:49;;;;;;;5.20;1.02;;;6.40;99.90;;;;;;4949492;28;20105;-85
2022/01/04 08:21:14;;;;;;;;;;;6.30;99.90;;;;;;4945339;28;20138;-84
2022/01/04 08:23:40;;;;;;;2.35;0.75;;;6.30;99.90;;;;;;4946088;29;19930;-85
2022/01/04 08:26:05;;;;;;;;;;;6.20;99.90;;;;;;4948041;28;20555;-85
2022/01/04 08:28:31;;;;;;;1.80;0.60;;;6.20;99.90;;;;;;4948753;28;19922;-85
2022/01/04 08:30:57;;;;;;;;;;;6.20;99.90;;;;;;4947384;28;20090;-85
2022/01/04 08:33:23;;;;;;;2.90;0.85;;;6.10;99.90;;;;;;4947248;28;19922;-85
2022/01/04 08:35:49;;;;;;;3.05;0.85;;;6.10;99.90;;;;;;4947084;28;20052;-86
2022/01/04 08:38:14;;;;;;;;;;;6.10;99.90;;;;;;4949239;28;20067;-86
2022/01/04 08:40:40;;;;;;;4.60;0.93;;;6.10;99.90;;;;;;4937361;28;20463;-85
2022/01/04 08:43:05;;;;;;;;;;;6.10;99.90;;;;;;4950453;28;20067;-85
2022/01/04 08:45:32;;;;;;;4.07;0.80;;;6.10;99.90;;;;;;4944668;28;19932;-84
2022/01/04 08:47:59;;;;;;;2.15;0.77;;;6.10;99.90;;;;;;4945974;28;20129;-84
2022/01/04 08:50:25;;;;;;;3.40;0.90;;;6.10;99.90;;;;;;4947873;28;20054;-84
2022/01/04 08:52:52;;;;;;;2.85;0.80;;;6.10;99.90;;;;;;4964758;28;20053;-84
2022/01/04 08:55:47;;;;;;;3.80;0.90;;;6.10;99.90;;;;;;4970578;23;20077;-81
2022/01/04 08:58:16;;;;;;;2.65;0.90;;;5.50;99.90;;;;;;5236135;23;20059;-82
2022/01/04 09:00:43;;;;;;;4.72;1.02;;;6.20;99.90;;;;;;4947638;28;20141;-84
2022/01/04 09:03:09;;;;;;;4.13;0.90;;;6.10;99.90;;;;;;4945604;28;20082;-83
2022/01/04 09:05:35;;;;;;;;;;;6.50;99.90;;;;;;4964191;28;20055;-83
2022/01/04 09:08:01;;;;;;;3.85;1.20;;;6.10;99.90;;;;;;4945753;28;20013;-82
2022/01/04 09:10:27;;;;;;;5.65;0.88;;;6.10;99.90;;;;;;4945976;28;20054;-83
2022/01/04 09:18:43;;;;;;;3.92;0.80;;;6.10;99.90;;;;;;4961205;28;20090;-86
2022/01/04 09:38:04;;;;;;;2.15;0.70;;;5.70;99.90;;;;;;4953735;28;20102;-89
2022/01/04 09:40:31;;;;;;;1.40;0.65;;;5.80;99.90;;;;;;4943694;28;20079;-76
2022/01/04 09:42:57;;;;;;;3.22;0.70;;;5.90;99.90;;;;;;4943425;28;20066;-77
2022/01/04 09:45:23;;;;;;;4.15;0.60;;;5.90;99.90;;;;;;4938715;29;20101;-78
2022/01/04 09:47:51;;;;;;;;;;;5.90;99.90;;;;;;4947562;28;20474;-79
2022/01/04 09:50:17;;;;;;;1.40;0.60;;;5.90;99.90;;;;;;4961100;28;20619;-81
2022/01/04 09:52:49;;;;;;;;;;;5.80;99.90;;;;;;4945803;28;20415;-78
2022/01/04 09:55:18;;;;;;;5.90;1.42;;;5.80;99.90;;;;;;4961844;28;19922;-84
2022/01/04 10:18:28;;;;;;;2.22;0.65;;;5.80;99.90;;;;;;5010509;23;20062;-81
2022/01/04 10:21:48;;;;;;;1.67;0.73;;;5.70;99.90;;;;;;4951964;28;20074;-87
2022/01/04 10:38:40;;;;;;;1.73;0.85;;;6.00;99.90;;;;;;3145324;23;20047;-79
2022/01/04 10:41:31;;;;;;;3.00;0.70;;;4.00;99.90;;;;;;4940799;28;20553;-79
2022/01/04 10:51:21;;;;;;;3.10;0.88;;;4.80;99.90;;;;;;4961227;28;20086;-78
2022/01/04 10:54:06;;;;;;;3.88;1.10;;;5.90;99.90;;;;;;4948140;28;20509;-80
2022/01/04 10:56:35;;;;;;;2.60;1.00;;;6.10;99.90;;;;;;4945014;29;20039;-87
2022/01/04 10:59:06;;;;;;;3.42;1.25;;;7.20;99.90;;;;;;4951351;28;20047;-85
2022/01/04 11:01:51;;;;;;;4.72;1.00;;;6.10;99.90;;;;;;4949957;28;20639;-82
2022/01/04 11:04:19;;;;;;;2.80;1.08;;;6.10;99.90;;;;;;4946371;28;20042;-84
2022/01/04 11:28:19;;;;;;;5.90;1.67;;;6.60;99.90;;;;;;5479595;23;20050;-82
2022/01/04 11:34:02;;;;;;;6.57;1.75;;;6.60;99.90;;;;;;6010501;23;20018;-82
2022/01/04 11:36:29;;;;;;;7.97;2.85;;;6.60;99.90;;;;;;4947791;28;20490;-84
2022/01/04 11:38:55;;;;;;;6.00;2.40;;;6.60;99.90;;;;;;4964721;28;20098;-85
2022/01/04 11:41:32;;;;;;;7.03;2.45;;;6.60;99.90;;;;;;4953155;28;20050;-88
2022/01/04 11:44:17;;;;;;;8.65;2.17;;;6.70;99.90;;;;;;4952335;28;20163;-85
2022/01/04 11:46:42;;;;;;;6.53;2.10;;;6.60;99.90;;;;;;4950999;28;20049;-85
2022/01/04 11:49:10;;;;;;;;;;;6.50;99.90;;;;;;4949416;28;20039;-81
2022/01/04 11:51:40;;;;;;;7.55;1.58;;;6.50;99.90;;;;;;4945415;28;19931;-80
2022/01/04 11:54:27;;;;;;;4.47;1.60;;;6.40;99.90;;;;;;4945237;28;20046;-80
2022/01/04 11:57:04;;;;;;;9.52;2.97;;;6.30;99.90;;;;;;4946476;28;20065;-79
2022/01/04 11:59:45;;;;;;;7.50;2.78;;;6.30;99.90;;;;;;4949753;28;20407;-78
2022/01/04 12:03:06;;;;;;;9.80;3.30;;;6.20;99.90;;;;;;4945691;28;20055;-80
2022/01/04 12:33:57;;;;;;;16.38;6.78;;;6.00;99.90;;;;;;4964967;28;20047;-80
2022/01/04 12:47:38;;;;;;;;;;;;;;;;;;;;;
2022/01/04 12:51:04;;;;;;;10.07;4.22;;;7.40;99.90;;;;;;4951434;28;20054;-80
2022/01/04 12:58:41;;;;;;;6.72;2.83;;;6.40;99.90;;;;;;1440752;26;20050;-78
2022/01/04 13:01:07;;;;;;;6.50;3.30;;;6.40;99.90;;;;;;4967943;28;20047;-81
2022/01/04 13:03:32;;;;;;;;;;;6.50;99.90;;;;;;4967959;28;20042;-78
2022/01/04 13:06:00;;;;;;;5.38;1.80;;;6.50;99.90;;;;;;4968241;28;19932;-79
2022/01/04 13:08:29;;;;;;;4.68;2.40;;;6.60;99.90;;;;;;4969006;28;20493;-81
2022/01/04 13:11:03;;;;;;;9.48;3.08;;;6.70;99.90;;;;;;4959539;28;20053;-78
2022/01/04 13:13:30;;;;;;;7.80;2.97;;;6.70;99.90;;;;;;4984434;28;20411;-81
2022/01/04 13:16:14;;;;;;;9.23;3.60;;;6.80;99.90;;;;;;4982570;28;20050;-91
2022/01/04 13:18:40;;;;;;;9.02;1.38;;;6.80;99.90;;;;;;4967975;28;20406;-86
2022/01/04 13:21:06;;;;;;;;;;;6.70;99.90;;;;;;4986079;28;20046;-82
2022/01/04 13:23:39;;;;;;;4.22;1.00;;;6.60;99.90;;;;;;4973111;28;19922;-82
2022/01/04 13:26:05;;;;;;;3.28;0.90;;;6.60;99.90;;;;;;4965156;28;20520;-89
2022/01/04 13:28:30;;;;;;;;;;;6.60;99.90;;;;;;4986245;28;20034;-78
2022/01/04 13:31:00;;;;;;;5.32;1.20;;;6.50;99.90;;;;;;4966459;28;19992;-90
2022/01/04 13:33:25;;;;;;;6.20;1.00;;;6.50;99.90;;;;;;4966157;28;20042;-80
2022/01/04 13:35:58;;;;;;;;;;;6.50;99.90;;;;;;4987427;28;20044;-85
2022/01/04 13:38:29;;;;;;;2.42;1.20;;;6.50;99.90;;;;;;4982257;28;20018;-86
2022/01/04 13:41:01;;;;;;;5.22;1.90;;;6.60;99.90;;;;;;4965521;28;20113;-85
2022/01/04 13:43:45;;;;;;;5.47;1.40;;;6.60;99.90;;;;;;4968257;28;20049;-79
2022/01/04 13:46:15;;;;;;;6.30;1.48;;;6.70;99.90;;;;;;4966840;28;20061;-81
2022/01/04 13:55:32;;;;;;;8.80;3.60;;;6.40;99.90;;;;;;4946217;29;20090;-80
2022/01/04 13:57:57;;;;;;;6.38;2.60;;;4.70;99.90;;;;;;4945566;28;20430;-77
2022/01/04 14:00:42;;;;;;;;;;;6.60;99.90;;;;;;4965499;28;20043;-86
2022/01/04 14:03:49;;;;;;;16.08;7.53;;;7.10;99.90;;;;;;4959290;28;19922;-80
2022/01/04 14:17:41;;;;;;;14.27;5.63;;;6.30;99.90;;;;;;5483490;23;20054;-76
2022/01/04 14:21:15;;;;;;;15.57;5.80;;;6.50;99.90;;;;;;4946525;28;20058;-74
2022/01/04 14:24:27;;;;;;;7.60;2.63;;;6.30;99.90;;;;;;4945797;28;20507;-75
2022/01/04 14:34:12;;;;;;;5.40;1.65;;;5.00;99.90;;;;;;4963032;28;20087;-77
2022/01/04 14:47:53;;;;;;;8.20;3.20;;;5.70;99.90;;;;;;4963222;28;20047;-76
2022/01/04 14:54:17;;;;;;;8.60;3.47;;;5.00;99.90;;;;;;4961159;28;20039;-74
2022/01/04 14:57:07;;;;;;;6.38;2.20;;;5.70;99.90;;;;;;4962583;28;20051;-73
2022/01/04 15:00:24;;;;;;;7.28;3.08;;;4.80;99.90;;;;;;4943108;28;20431;-80
2022/01/04 15:03:05;;;;;;;11.30;3.78;;;6.10;99.90;;;;;;4942866;28;20046;-84
2022/01/04 15:06:19;;;;;;;16.38;6.60;;;5.20;99.90;;;;;;4940681;29;20414;-75
2022/01/04 15:08:26;;;;;;;18.92;8.50;;;5.20;99.90;;;;;;4936924;28;20398;-87
2022/01/04 15:10:51;;;;;;;;;;;4.70;99.90;;;;;;4947543;28;20055;-89
2022/01/04 15:13:17;;;;;;;28.58;11.55;;;4.90;99.90;;;;;;4944367;28;19925;-87
2022/01/04 15:15:42;;;;;;;;;;;4.80;99.90;;;;;;4947087;28;20081;-85
2022/01/04 15:18:08;;;;;;;24.02;10.30;;;4.80;99.90;;;;;;4947635;28;19922;-83
2022/01/04 15:20:35;;;;;;;;;;;4.80;99.90;;;;;;4942710;28;20098;-86
2022/01/04 15:23:00;;;;;;;13.40;5.28;;;4.70;99.90;;;;;;4942672;28;19921;-90
2022/01/04 15:25:35;;;;;;;;;;;4.60;99.90;;;;;;4944282;29;20043;-82
2022/01/04 15:28:01;;;;;;;9.05;2.83;;;4.80;99.90;;;;;;4942121;28;19969;-79
2022/01/04 15:30:28;;;;;;;;;;;4.50;99.90;;;;;;4947162;28;20134;-81
2022/01/04 15:32:59;;;;;;;5.97;1.90;;;4.50;99.90;;;;;;4937981;29;19923;-80
2022/01/04 15:35:25;;;;;;;6.80;2.80;;;4.50;99.90;;;;;;4934095;28;20171;-78
2022/01/04 15:37:54;;;;;;;10.43;3.38;;;4.50;99.90;;;;;;4950428;28;20052;-80
2022/01/04 15:40:22;;;;;;;13.35;5.22;;;4.40;99.90;;;;;;4947590;28;20043;-79
2022/01/04 15:42:48;;;;;;;;;;;4.80;99.90;;;;;;4946948;28;20159;-79
2022/01/04 15:45:13;;;;;;;9.57;3.05;;;4.30;99.90;;;;;;4956952;28;19961;-81
2022/01/04 15:47:39;;;;;;;;;;;4.40;99.90;;;;;;4961980;28;20043;-81
2022/01/04 15:50:06;;;;;;;9.85;3.28;;;4.40;99.90;;;;;;4942003;28;19918;-82
2022/01/04 15:52:32;;;;;;;6.50;2.75;;;4.30;99.90;;;;;;4949964;28;20046;-81
2022/01/04 16:22:11;;;;;;;7.45;2.42;;;4.30;99.90;;;;;;4979658;28;20132;-76
2022/01/04 17:12:21;;;;;;;8.68;2.28;;;3.90;99.90;;;;;;5517067;23;20118;-82
2022/01/04 17:36:02;;;;;;;;;;;4.10;99.90;;;;;;4949469;29;20062;-78
2022/01/04 17:42:39;;;;;;;14.18;6.43;;;3.00;99.90;;;;;;4946936;29;20059;-81
2022/01/04 18:17:52;;;;;;;10.93;2.17;;;3.00;99.90;;;;;;4978422;28;19925;-80
2022/01/04 19:15:56;;;;;;;9.38;2.83;;;4.10;99.90;;;;;;5928733;23;20030;-80
2022/01/04 19:18:24;;;;;;;10.48;2.70;;;4.00;99.90;;;;;;4949415;28;20035;-84
2022/01/04 19:20:52;;;;;;;6.35;2.55;;;4.00;99.90;;;;;;4950066;28;20061;-81
2022/01/04 19:23:18;;;;;;;6.80;2.65;;;3.90;99.90;;;;;;4945119;28;20086;-86
2022/01/04 19:25:44;;;;;;;;;;;3.90;99.90;;;;;;4957014;28;20129;-91
2022/01/04 19:28:15;;;;;;;6.30;2.03;;;3.80;99.90;;;;;;4951245;28;19929;-90
2022/01/04 19:30:41;;;;;;;7.00;1.98;;;5.10;99.90;;;;;;4948611;28;20053;-87
2022/01/04 19:33:20;;;;;;;;;;;3.80;99.90;;;;;;4967452;28;20034;-80
2022/01/04 19:38:47;;;;;;;;;;;3.70;99.90;;;;;;5532101;23;20511;-82
2022/01/04 19:41:15;;;;;;;5.97;2.08;;;2.60;99.90;;;;;;4950685;28;19929;-79
2022/01/04 19:43:44;;;;;;;4.15;2.00;;;3.60;99.90;;;;;;4944682;28;20049;-91
2022/01/04 19:46:11;;;;;;;8.63;1.85;;;3.60;99.90;;;;;;4958589;28;20075;-94
2022/01/04 19:48:37;;;;;;;6.95;1.75;;;3.70;99.90;;;;;;4946520;28;20086;-92
2022/01/04 19:56:18;;;;;;;6.95;3.15;;;3.90;99.90;;;;;;5086744;23;20051;-85
2022/01/04 19:58:49;;;;;;;6.47;2.63;;;3.90;99.90;;;;;;4952952;28;20035;-87
2022/01/04 20:01:22;;;;;;;7.40;2.90;;;4.00;99.90;;;;;;4946730;28;20398;-86
2022/01/04 20:03:51;;;;;;;6.32;2.60;;;3.90;99.90;;;;;;4944335;28;20082;-88
2022/01/04 20:06:17;;;;;;;7.72;2.60;;;3.90;99.90;;;;;;4948399;28;20478;-95
2022/01/04 20:34:37;;;;;;;11.05;2.38;;;3.60;99.90;;;;;;5693015;23;20426;-88
2022/01/04 20:37:16;;;;;;;6.93;3.33;;;3.60;99.90;;;;;;4949279;28;20054;-79
2022/01/04 20:39:41;;;;;;;10.75;1.90;;;3.70;99.90;;;;;;4945383;28;20051;-82
2022/01/04 20:42:07;;;;;;;;;;;3.80;99.90;;;;;;4950101;29;20047;-89
2022/01/04 20:44:34;;;;;;;9.73;1.60;;;3.80;99.90;;;;;;4940377;29;19926;-86
